AGRSOR1 / XX258 7700 Squawk Report (14th of September, 2017)

Aircraft HAWK Reg No. XX258 Age 38 years old
Model Hawk Jet engine 1 First flight 19-04-79
Registered N/A Rollout N/A Delivered 06-06-79
Construction No. 312094 Line No. N/A Series T.1A
ADSHEX 43C42D Airline name Royal Air Force Owner N/A
Airfield based Leeming~Yorks~G First tracked 2011-04-04 12:58:02

Flight history for XX258

Route Flight No Date Playback
???? N/A 2017-09-21 11:07:00
???? N/A 2017-09-20 15:05:00
???? N/A 2017-09-20 12:28:00
???? N/A 2017-09-14 09:58:00
???? N/A 2017-09-13 16:05:00
???? N/A 2017-09-13 11:03:00
???? N/A 2017-09-12 11:22:00
???? N/A 2017-09-11 19:32:00
???? N/A 2017-09-11 11:05:00
???? N/A 2017-08-31 14:30:00
???? N/A 2017-08-30 23:47:00
???? N/A 2017-08-30 19:41:00
???? N/A 2017-08-30 10:20:00
???? N/A 2017-08-29 18:05:00
???? N/A 2017-08-25 11:20:00
???? N/A 2017-08-24 14:04:00
???? N/A 2017-08-23 10:31:00
???? N/A 2017-08-22 10:15:00
???? N/A 2017-08-21 10:30:00
???? N/A 2017-08-17 14:02:00
Time Lat Lon Altitude Heading Speed Vertical Rate
2017-09-14 09:57:16 GMT 56.49753 -1.25010 35,500 257 375 180
2017-09-14 09:57:07 GMT 56.50076 -1.22613 35,500 327 68 180
2017-09-14 09:55:07 GMT 56.54724 -0.85378 35,500 29 406 0
We lost coverage of the aircraft here for a total of 49 minutes
2017-09-14 09:05:53 GMT 55.68482 -0.29105 24,000 29 417 0
2017-09-14 09:05:33 GMT 55.64299 -0.33721 24,000 31 452 0
2017-09-14 09:04:42 GMT 55.56572 -0.41118 24,000 29 383 0
2017-09-14 09:04:33 GMT 55.54901 -0.42930 24,000 28 374 0
2017-09-14 09:04:26 GMT 55.53737 -0.44144 24,000 30 411 0
2017-09-14 09:04:13 GMT 55.51853 -0.45847 24,000 30 424 0
2017-09-14 09:04:02 GMT 55.49797 -0.48231 24,000 28 372 0
2017-09-14 09:03:52 GMT 55.48110 -0.49928 24,000 25 356 0
2017-09-14 09:03:45 GMT 55.47091 -0.50623 24,000 30 397 0
2017-09-14 09:03:37 GMT 55.45884 -0.51826 24,000 27 393 0
2017-09-14 09:03:26 GMT 55.43821 -0.54057 24,000 22 304 -240
2017-09-14 09:03:17 GMT 55.42877 -0.54473 24,000 28 425 -300
2017-09-14 09:03:07 GMT 55.41417 -0.55599 24,000 26 396 240
2017-09-14 09:02:52 GMT 55.38953 -0.57745 24,100 28 445 480
2017-09-14 09:02:46 GMT 55.37504 -0.59624 23,900 21 349 -60
2017-09-14 09:02:33 GMT 55.35510 -0.61032 23,900 28 616 -60
2017-09-14 09:01:38 GMT 55.21730 -0.74203 24,000 21 212 0
2017-09-14 09:01:07 GMT 55.18900 -0.76205 24,000 341 22 0
2017-09-14 09:00:55 GMT 55.18763 -0.76291 24,000 24 329 -300
2017-09-14 09:00:46 GMT 55.17642 -0.77113 24,000 28 389 -300
2017-09-14 09:00:38 GMT 55.16749 -0.77380 24,000 34 509 300
2017-09-14 09:00:26 GMT 55.14302 -0.80333 24,100 23 328 360
2017-09-14 09:00:16 GMT 55.12907 -0.81388 24,000 33 467 0
2017-09-14 09:00:08 GMT 55.11508 -0.82713 24,000 35 461 0
2017-09-14 08:59:55 GMT 55.09253 -0.85549 24,000 30 401 0
2017-09-14 08:59:46 GMT 55.07818 -0.87046 24,000 31 454 -420
2017-09-14 08:59:37 GMT 55.06211 -0.88790 24,000 27 377 0
2017-09-14 08:59:25 GMT 55.03993 -0.91010 24,100 36 394 420
2017-09-14 08:59:16 GMT 55.02670 -0.92709 24,000 31 383 0
2017-09-14 08:59:08 GMT 55.01728 -0.93198 24,000 28 348 -60
2017-09-14 08:58:46 GMT 54.98620 -0.96167 24,000 33 435 -120
2017-09-14 08:58:17 GMT 54.93664 -1.02173 24,100 37 486 300
2017-09-14 08:58:08 GMT 54.92235 -1.03667 24,100 37 464 300
2017-09-14 08:57:58 GMT 54.90416 -1.06406 24,000 25 399 0
2017-09-14 08:57:47 GMT 54.88587 -1.07950 24,000 27 466 300
2017-09-14 08:57:37 GMT 54.86675 -1.09698 24,000 357 358 2520
2017-09-14 08:57:25 GMT 54.84759 -1.09093 23,900 30 515 1080
2017-09-14 08:57:16 GMT 54.82918 -1.11109 23,000 14 445 1200
2017-09-14 08:57:07 GMT 54.81120 -1.11894 22,700 7 399 2220
2017-09-14 08:56:55 GMT 54.78924 -1.12420 22,100 16 423 2280
2017-09-14 08:56:47 GMT 54.77426 -1.13210 21,600 14 416 1620
2017-09-14 08:56:38 GMT 54.75861 -1.12805 21,600 21 432 1680
2017-09-14 08:56:24 GMT 54.73154 -1.14954 21,100 12 406 1560
2017-09-14 08:56:17 GMT 54.71864 -1.15643 20,500 356 370 1500
2017-09-14 08:56:07 GMT 54.70155 -1.15436 20,100 23 443 3300
2017-09-14 08:55:54 GMT 54.67763 -1.17033 19,500 1 363 4560
2017-09-14 08:55:47 GMT 54.66483 -1.17597 19,100 350 359 3120
2017-09-14 08:55:37 GMT 54.64844 -1.17121 19,100 9 392 0
2017-09-14 08:55:23 GMT 54.62338 -1.17876 18,200 14 387 5580
2017-09-14 08:55:17 GMT 54.61282 -1.19611 17,700 344 373 2160
2017-09-14 08:55:08 GMT 54.59779 -1.18642 17,700 19 380 2400
2017-09-14 08:54:52 GMT 54.57111 -1.20150 16,800 24 364 3960
2017-09-14 08:54:47 GMT 54.56331 -1.20513 15,800 37 387 4320
2017-09-14 08:54:37 GMT 54.54901 -1.22383 15,800 10 376 5340
2017-09-14 08:54:26 GMT 54.52939 -1.22755 14,500 21 346 1500
2017-09-14 08:54:14 GMT 54.51153 -1.23980 14,100 16 336 4080
2017-09-14 08:54:07 GMT 54.50097 -1.24392 14,100 12 362 3420
2017-09-14 08:53:55 GMT 54.48137 -1.25166 13,000 28 344 3600
2017-09-14 08:53:46 GMT 54.46858 -1.25682 12,200 43 363 8160
2017-09-14 08:53:38 GMT 54.45772 -1.27148 12,200 41 323 6840
2017-09-14 08:53:26 GMT 54.44417 -1.29351 11,600 41 329 9000
2017-09-14 08:53:17 GMT 54.43344 -1.31000 9,200 40 319 0
2017-09-14 08:53:07 GMT 54.42220 -1.32650 9,200 42 324 1860
2017-09-14 08:52:56 GMT 54.40994 -1.34555 8,700 40 333 3420
2017-09-14 08:52:44 GMT 54.39578 -1.36603 7,600 38 305 0

Making use of Plane Finder data

You are free to use the raw flight data, aircraft information and images provided in this report for your own purposes provided the data is correctly attributed to Plane Finder. We ask that you please credit Plane Finder and link to planefinder.net in close proximity to the content.

Optionally one of the following logos (no smaller then 150x24px) can be used and must link to planefinder.net

Embedding the Plane Finder map

You are welcome to embed the Plane Finder playback map on your website to offer visitors a more interactive experience. We suggest using the following HTML code:

<iframe src="//planefinder.net/data/report/AGRSOR1-XX258-7700-squawk-2017-09-14/map" width="800" height="600" seamless="seamless"></iframe>

Where our data comes from

Plane Finder has a global network of data feeds and antenna radars that receive data broadcast directly from aircraft. The primary technologies used are ADS-B and MLAT. We also show feeds from the FAA and a FLARM glider feed.

Click here to find out more about the Plane Finder network.

How we collect our data